sensor_id;sensor_type;location;lat;lon;timestamp;P1;durP1;ratioP1;P2;durP2;ratioP2
2646;SDS011;1333;50.958;6.770;2023-11-21T00:00:53;9.23;;;7.57;;
2646;SDS011;1333;50.958;6.770;2023-11-21T00:03:18;9.20;;;8.07;;
2646;SDS011;1333;50.958;6.770;2023-11-21T00:05:44;9.43;;;7.17;;
2646;SDS011;1333;50.958;6.770;2023-11-21T00:08:09;8.60;;;6.30;;
2646;SDS011;1333;50.958;6.770;2023-11-21T00:10:35;15.63;;;7.73;;
2646;SDS011;1333;50.958;6.770;2023-11-21T00:13:03;12.10;;;7.17;;
2646;SDS011;1333;50.958;6.770;2023-11-21T00:15:29;10.30;;;7.33;;
2646;SDS011;1333;50.958;6.770;2023-11-21T00:17:55;21.67;;;8.00;;
2646;SDS011;1333;50.958;6.770;2023-11-21T00:20:20;9.10;;;6.00;;
2646;SDS011;1333;50.958;6.770;2023-11-21T00:22:46;8.50;;;6.70;;
2646;SDS011;1333;50.958;6.770;2023-11-21T00:25:11;8.30;;;6.33;;
2646;SDS011;1333;50.958;6.770;2023-11-21T00:27:39;8.70;;;6.53;;
2646;SDS011;1333;50.958;6.770;2023-11-21T00:30:05;8.90;;;6.87;;
2646;SDS011;1333;50.958;6.770;2023-11-21T00:32:31;13.43;;;7.60;;
2646;SDS011;1333;50.958;6.770;2023-11-21T00:34:57;12.47;;;8.23;;
2646;SDS011;1333;50.958;6.770;2023-11-21T00:37:24;9.80;;;7.57;;
2646;SDS011;1333;50.958;6.770;2023-11-21T00:39:50;10.13;;;9.03;;
2646;SDS011;1333;50.958;6.770;2023-11-21T00:42:15;11.00;;;9.60;;
2646;SDS011;1333;50.958;6.770;2023-11-21T00:44:40;12.00;;;7.83;;
2646;SDS011;1333;50.958;6.770;2023-11-21T00:47:06;15.33;;;9.43;;
2646;SDS011;1333;50.958;6.770;2023-11-21T00:49:33;9.97;;;7.80;;
2646;SDS011;1333;50.958;6.770;2023-11-21T00:51:58;15.17;;;8.70;;
2646;SDS011;1333;50.958;6.770;2023-11-21T00:54:24;10.27;;;8.90;;
2646;SDS011;1333;50.958;6.770;2023-11-21T00:56:49;9.03;;;7.20;;
2646;SDS011;1333;50.958;6.770;2023-11-21T00:59:15;11.43;;;8.80;;
2646;SDS011;1333;50.958;6.770;2023-11-21T01:01:40;10.20;;;8.57;;
2646;SDS011;1333;50.958;6.770;2023-11-21T01:04:06;10.23;;;7.43;;
2646;SDS011;1333;50.958;6.770;2023-11-21T01:06:32;9.33;;;8.03;;
2646;SDS011;1333;50.958;6.770;2023-11-21T01:08:58;11.33;;;8.10;;
2646;SDS011;1333;50.958;6.770;2023-11-21T01:11:23;10.20;;;7.80;;
2646;SDS011;1333;50.958;6.770;2023-11-21T01:13:49;11.53;;;8.33;;
2646;SDS011;1333;50.958;6.770;2023-11-21T01:16:14;8.47;;;6.97;;
2646;SDS011;1333;50.958;6.770;2023-11-21T01:18:40;9.67;;;8.10;;
2646;SDS011;1333;50.958;6.770;2023-11-21T01:21:05;11.87;;;8.50;;
2646;SDS011;1333;50.958;6.770;2023-11-21T01:23:32;11.83;;;8.30;;
2646;SDS011;1333;50.958;6.770;2023-11-21T01:25:58;12.03;;;8.43;;
2646;SDS011;1333;50.958;6.770;2023-11-21T01:28:23;18.37;;;9.07;;
2646;SDS011;1333;50.958;6.770;2023-11-21T01:30:49;12.40;;;9.20;;
2646;SDS011;1333;50.958;6.770;2023-11-21T01:33:14;10.03;;;8.60;;
2646;SDS011;1333;50.958;6.770;2023-11-21T01:35:40;16.00;;;9.53;;
2646;SDS011;1333;50.958;6.770;2023-11-21T01:38:06;10.30;;;8.53;;
2646;SDS011;1333;50.958;6.770;2023-11-21T01:40:33;10.20;;;7.80;;
2646;SDS011;1333;50.958;6.770;2023-11-21T01:42:59;14.23;;;8.17;;
2646;SDS011;1333;50.958;6.770;2023-11-21T01:45:25;10.90;;;7.40;;
2646;SDS011;1333;50.958;6.770;2023-11-21T01:47:50;8.57;;;7.63;;
2646;SDS011;1333;50.958;6.770;2023-11-21T01:50:17;13.57;;;8.00;;
2646;SDS011;1333;50.958;6.770;2023-11-21T01:52:46;8.33;;;7.50;;
2646;SDS011;1333;50.958;6.770;2023-11-21T01:55:12;11.40;;;8.37;;
2646;SDS011;1333;50.958;6.770;2023-11-21T01:57:43;12.57;;;8.10;;
2646;SDS011;1333;50.958;6.770;2023-11-21T02:00:09;11.57;;;7.70;;
2646;SDS011;1333;50.958;6.770;2023-11-21T02:02:47;8.17;;;6.57;;
2646;SDS011;1333;50.958;6.770;2023-11-21T02:05:17;10.63;;;7.00;;
2646;SDS011;1333;50.958;6.770;2023-11-21T02:07:43;9.43;;;7.10;;
2646;SDS011;1333;50.958;6.770;2023-11-21T02:10:10;8.67;;;6.67;;
2646;SDS011;1333;50.958;6.770;2023-11-21T02:12:40;13.00;;;7.37;;
2646;SDS011;1333;50.958;6.770;2023-11-21T02:15:07;13.37;;;7.47;;
2646;SDS011;1333;50.958;6.770;2023-11-21T02:17:39;12.27;;;8.27;;
2646;SDS011;1333;50.958;6.770;2023-11-21T02:20:09;11.73;;;8.90;;
2646;SDS011;1333;50.958;6.770;2023-11-21T02:22:41;14.57;;;7.87;;
2646;SDS011;1333;50.958;6.770;2023-11-21T02:25:07;14.17;;;9.30;;
2646;SDS011;1333;50.958;6.770;2023-11-21T02:27:33;9.93;;;8.80;;
2646;SDS011;1333;50.958;6.770;2023-11-21T02:29:58;15.40;;;9.30;;
2646;SDS011;1333;50.958;6.770;2023-11-21T02:32:25;13.87;;;8.40;;
2646;SDS011;1333;50.958;6.770;2023-11-21T02:34:51;9.40;;;8.10;;
2646;SDS011;1333;50.958;6.770;2023-11-21T02:37:17;11.77;;;8.00;;
2646;SDS011;1333;50.958;6.770;2023-11-21T02:39:42;10.50;;;7.90;;
2646;SDS011;1333;50.958;6.770;2023-11-21T02:42:08;13.80;;;7.40;;
2646;SDS011;1333;50.958;6.770;2023-11-21T02:44:33;13.60;;;7.70;;
2646;SDS011;1333;50.958;6.770;2023-11-21T02:46:59;17.33;;;8.40;;
2646;SDS011;1333;50.958;6.770;2023-11-21T02:49:25;10.20;;;8.33;;
2646;SDS011;1333;50.958;6.770;2023-11-21T02:51:53;12.27;;;7.37;;
2646;SDS011;1333;50.958;6.770;2023-11-21T02:54:19;11.90;;;7.77;;
2646;SDS011;1333;50.958;6.770;2023-11-21T02:56:47;10.20;;;6.73;;
2646;SDS011;1333;50.958;6.770;2023-11-21T02:59:12;14.03;;;7.53;;
2646;SDS011;1333;50.958;6.770;2023-11-21T03:01:38;8.33;;;6.37;;
2646;SDS011;1333;50.958;6.770;2023-11-21T03:04:03;14.60;;;7.20;;
2646;SDS011;1333;50.958;6.770;2023-11-21T03:06:29;7.90;;;6.73;;
2646;SDS011;1333;50.958;6.770;2023-11-21T03:08:55;10.80;;;7.10;;
2646;SDS011;1333;50.958;6.770;2023-11-21T03:11:20;9.63;;;7.03;;
2646;SDS011;1333;50.958;6.770;2023-11-21T03:13:46;8.03;;;6.07;;
2646;SDS011;1333;50.958;6.770;2023-11-21T03:16:12;8.47;;;5.40;;
2646;SDS011;1333;50.958;6.770;2023-11-21T03:18:38;10.50;;;6.40;;
2646;SDS011;1333;50.958;6.770;2023-11-21T03:21:07;11.90;;;5.90;;
2646;SDS011;1333;50.958;6.770;2023-11-21T03:23:36;9.60;;;6.00;;
2646;SDS011;1333;50.958;6.770;2023-11-21T03:26:01;6.40;;;4.87;;
2646;SDS011;1333;50.958;6.770;2023-11-21T03:28:27;8.70;;;5.87;;
2646;SDS011;1333;50.958;6.770;2023-11-21T03:30:53;11.63;;;6.47;;
2646;SDS011;1333;50.958;6.770;2023-11-21T03:33:19;11.50;;;7.07;;
2646;SDS011;1333;50.958;6.770;2023-11-21T03:35:45;9.47;;;6.33;;
2646;SDS011;1333;50.958;6.770;2023-11-21T03:38:11;15.10;;;6.57;;
2646;SDS011;1333;50.958;6.770;2023-11-21T03:40:37;8.10;;;6.53;;
2646;SDS011;1333;50.958;6.770;2023-11-21T03:43:05;12.83;;;6.30;;
2646;SDS011;1333;50.958;6.770;2023-11-21T03:45:31;7.70;;;6.43;;
2646;SDS011;1333;50.958;6.770;2023-11-21T03:47:56;7.83;;;5.27;;
2646;SDS011;1333;50.958;6.770;2023-11-21T03:50:22;12.30;;;6.60;;
2646;SDS011;1333;50.958;6.770;2023-11-21T03:52:47;8.30;;;5.87;;
2646;SDS011;1333;50.958;6.770;2023-11-21T03:55:13;12.03;;;6.30;;
2646;SDS011;1333;50.958;6.770;2023-11-21T03:57:39;9.10;;;6.10;;
2646;SDS011;1333;50.958;6.770;2023-11-21T04:00:05;12.87;;;7.33;;
2646;SDS011;1333;50.958;6.770;2023-11-21T04:02:33;7.43;;;5.30;;
2646;SDS011;1333;50.958;6.770;2023-11-21T04:04:59;7.40;;;6.30;;
2646;SDS011;1333;50.958;6.770;2023-11-21T04:07:24;10.67;;;6.27;;
2646;SDS011;1333;50.958;6.770;2023-11-21T04:09:50;10.80;;;7.23;;
2646;SDS011;1333;50.958;6.770;2023-11-21T04:12:15;11.07;;;7.30;;
2646;SDS011;1333;50.958;6.770;2023-11-21T04:14:41;8.63;;;5.43;;
2646;SDS011;1333;50.958;6.770;2023-11-21T04:17:06;10.13;;;5.77;;
2646;SDS011;1333;50.958;6.770;2023-11-21T04:19:32;7.67;;;5.80;;
2646;SDS011;1333;50.958;6.770;2023-11-21T04:21:57;7.40;;;5.70;;
2646;SDS011;1333;50.958;6.770;2023-11-21T04:24:23;9.43;;;6.47;;
2646;SDS011;1333;50.958;6.770;2023-11-21T04:26:48;10.43;;;7.17;;
2646;SDS011;1333;50.958;6.770;2023-11-21T04:29:14;9.27;;;7.07;;
2646;SDS011;1333;50.958;6.770;2023-11-21T04:31:39;13.97;;;7.13;;
2646;SDS011;1333;50.958;6.770;2023-11-21T04:34:06;11.93;;;6.53;;
2646;SDS011;1333;50.958;6.770;2023-11-21T04:36:31;11.67;;;7.10;;
2646;SDS011;1333;50.958;6.770;2023-11-21T04:38:57;9.03;;;6.63;;
2646;SDS011;1333;50.958;6.770;2023-11-21T04:41:23;10.80;;;6.53;;
2646;SDS011;1333;50.958;6.770;2023-11-21T04:43:48;12.43;;;7.97;;
2646;SDS011;1333;50.958;6.770;2023-11-21T04:46:14;10.43;;;7.73;;
2646;SDS011;1333;50.958;6.770;2023-11-21T04:48:40;13.70;;;7.80;;
2646;SDS011;1333;50.958;6.770;2023-11-21T04:51:05;8.40;;;6.10;;
2646;SDS011;1333;50.958;6.770;2023-11-21T04:53:31;10.30;;;7.10;;
2646;SDS011;1333;50.958;6.770;2023-11-21T04:55:57;11.40;;;7.33;;
2646;SDS011;1333;50.958;6.770;2023-11-21T04:58:22;7.93;;;6.37;;
2646;SDS011;1333;50.958;6.770;2023-11-21T05:00:48;14.67;;;8.03;;
2646;SDS011;1333;50.958;6.770;2023-11-21T05:03:14;12.73;;;7.97;;
2646;SDS011;1333;50.958;6.770;2023-11-21T05:05:40;9.90;;;6.40;;
2646;SDS011;1333;50.958;6.770;2023-11-21T05:08:05;8.93;;;5.83;;
2646;SDS011;1333;50.958;6.770;2023-11-21T05:10:31;12.70;;;7.80;;
2646;SDS011;1333;50.958;6.770;2023-11-21T05:12:56;10.70;;;7.33;;
2646;SDS011;1333;50.958;6.770;2023-11-21T05:15:23;10.77;;;6.70;;
2646;SDS011;1333;50.958;6.770;2023-11-21T05:17:49;12.17;;;7.30;;
2646;SDS011;1333;50.958;6.770;2023-11-21T05:20:17;10.00;;;6.93;;
2646;SDS011;1333;50.958;6.770;2023-11-21T05:22:45;13.53;;;7.60;;
2646;SDS011;1333;50.958;6.770;2023-11-21T05:25:12;11.53;;;6.90;;
2646;SDS011;1333;50.958;6.770;2023-11-21T05:27:37;11.07;;;7.53;;
2646;SDS011;1333;50.958;6.770;2023-11-21T05:30:03;14.70;;;7.70;;
2646;SDS011;1333;50.958;6.770;2023-11-21T05:32:30;12.00;;;7.70;;
2646;SDS011;1333;50.958;6.770;2023-11-21T05:34:56;10.13;;;7.17;;
2646;SDS011;1333;50.958;6.770;2023-11-21T05:37:22;13.73;;;8.53;;
2646;SDS011;1333;50.958;6.770;2023-11-21T05:39:48;15.57;;;9.90;;
2646;SDS011;1333;50.958;6.770;2023-11-21T05:42:14;11.43;;;8.20;;
2646;SDS011;1333;50.958;6.770;2023-11-21T05:44:41;14.17;;;8.10;;
2646;SDS011;1333;50.958;6.770;2023-11-21T05:47:08;13.27;;;8.93;;
2646;SDS011;1333;50.958;6.770;2023-11-21T05:49:34;13.50;;;8.33;;
2646;SDS011;1333;50.958;6.770;2023-11-21T05:52:00;15.80;;;9.97;;
2646;SDS011;1333;50.958;6.770;2023-11-21T05:54:25;21.90;;;10.80;;
2646;SDS011;1333;50.958;6.770;2023-11-21T05:56:51;15.23;;;9.33;;
2646;SDS011;1333;50.958;6.770;2023-11-21T05:59:17;19.13;;;10.33;;
2646;SDS011;1333;50.958;6.770;2023-11-21T06:01:42;16.93;;;10.70;;
2646;SDS011;1333;50.958;6.770;2023-11-21T06:04:08;16.50;;;10.67;;
2646;SDS011;1333;50.958;6.770;2023-11-21T06:06:34;13.63;;;9.50;;
2646;SDS011;1333;50.958;6.770;2023-11-21T06:09:00;20.50;;;10.07;;
2646;SDS011;1333;50.958;6.770;2023-11-21T06:11:26;18.30;;;10.67;;
2646;SDS011;1333;50.958;6.770;2023-11-21T06:13:51;18.27;;;11.07;;
2646;SDS011;1333;50.958;6.770;2023-11-21T06:16:18;20.90;;;11.40;;
2646;SDS011;1333;50.958;6.770;2023-11-21T06:18:45;18.00;;;10.33;;
2646;SDS011;1333;50.958;6.770;2023-11-21T06:21:11;17.60;;;11.60;;
2646;SDS011;1333;50.958;6.770;2023-11-21T06:23:37;19.17;;;10.70;;
2646;SDS011;1333;50.958;6.770;2023-11-21T06:26:02;15.57;;;10.70;;
2646;SDS011;1333;50.958;6.770;2023-11-21T06:28:29;14.23;;;10.73;;
2646;SDS011;1333;50.958;6.770;2023-11-21T06:30:55;16.47;;;11.40;;
2646;SDS011;1333;50.958;6.770;2023-11-21T06:33:22;19.83;;;12.77;;
2646;SDS011;1333;50.958;6.770;2023-11-21T06:35:47;22.43;;;11.70;;
2646;SDS011;1333;50.958;6.770;2023-11-21T06:38:13;16.73;;;10.47;;
2646;SDS011;1333;50.958;6.770;2023-11-21T06:40:38;14.93;;;10.50;;
2646;SDS011;1333;50.958;6.770;2023-11-21T06:43:04;17.57;;;11.30;;
2646;SDS011;1333;50.958;6.770;2023-11-21T06:45:31;24.17;;;12.80;;
2646;SDS011;1333;50.958;6.770;2023-11-21T06:47:59;20.43;;;12.50;;
2646;SDS011;1333;50.958;6.770;2023-11-21T06:50:24;18.60;;;12.10;;
2646;SDS011;1333;50.958;6.770;2023-11-21T06:52:50;21.00;;;11.90;;
2646;SDS011;1333;50.958;6.770;2023-11-21T06:55:15;29.17;;;13.67;;
2646;SDS011;1333;50.958;6.770;2023-11-21T06:57:41;21.97;;;13.53;;
2646;SDS011;1333;50.958;6.770;2023-11-21T07:00:07;21.00;;;11.83;;
2646;SDS011;1333;50.958;6.770;2023-11-21T07:02:36;19.17;;;12.67;;
2646;SDS011;1333;50.958;6.770;2023-11-21T07:05:02;21.27;;;11.00;;
2646;SDS011;1333;50.958;6.770;2023-11-21T07:07:27;22.03;;;13.33;;
2646;SDS011;1333;50.958;6.770;2023-11-21T07:09:53;21.87;;;12.07;;
2646;SDS011;1333;50.958;6.770;2023-11-21T07:12:19;26.20;;;12.37;;
2646;SDS011;1333;50.958;6.770;2023-11-21T07:14:44;24.77;;;14.00;;
2646;SDS011;1333;50.958;6.770;2023-11-21T07:17:10;18.30;;;11.47;;
2646;SDS011;1333;50.958;6.770;2023-11-21T07:19:39;23.60;;;13.70;;
2646;SDS011;1333;50.958;6.770;2023-11-21T07:22:06;23.40;;;12.47;;
2646;SDS011;1333;50.958;6.770;2023-11-21T07:24:33;18.03;;;11.67;;
2646;SDS011;1333;50.958;6.770;2023-11-21T07:26:59;21.67;;;12.77;;
2646;SDS011;1333;50.958;6.770;2023-11-21T07:29:25;29.00;;;14.60;;
2646;SDS011;1333;50.958;6.770;2023-11-21T07:31:52;24.60;;;12.47;;
2646;SDS011;1333;50.958;6.770;2023-11-21T07:34:18;22.87;;;12.70;;
2646;SDS011;1333;50.958;6.770;2023-11-21T07:36:44;30.33;;;14.80;;
2646;SDS011;1333;50.958;6.770;2023-11-21T07:39:10;20.23;;;12.83;;
2646;SDS011;1333;50.958;6.770;2023-11-21T07:41:35;16.80;;;12.23;;
2646;SDS011;1333;50.958;6.770;2023-11-21T07:44:03;25.93;;;12.60;;
2646;SDS011;1333;50.958;6.770;2023-11-21T07:46:28;22.03;;;13.50;;
2646;SDS011;1333;50.958;6.770;2023-11-21T07:48:54;21.47;;;13.00;;
2646;SDS011;1333;50.958;6.770;2023-11-21T07:51:20;21.37;;;12.20;;
2646;SDS011;1333;50.958;6.770;2023-11-21T07:53:45;23.60;;;13.80;;
2646;SDS011;1333;50.958;6.770;2023-11-21T07:56:11;20.00;;;13.00;;
2646;SDS011;1333;50.958;6.770;2023-11-21T07:58:37;18.50;;;11.90;;
2646;SDS011;1333;50.958;6.770;2023-11-21T08:01:03;25.83;;;11.93;;
2646;SDS011;1333;50.958;6.770;2023-11-21T08:03:30;21.20;;;14.17;;
2646;SDS011;1333;50.958;6.770;2023-11-21T08:05:56;18.47;;;12.23;;
2646;SDS011;1333;50.958;6.770;2023-11-21T08:08:22;16.33;;;10.33;;
2646;SDS011;1333;50.958;6.770;2023-11-21T08:10:48;17.00;;;10.60;;
2646;SDS011;1333;50.958;6.770;2023-11-21T08:13:21;20.80;;;10.50;;
2646;SDS011;1333;50.958;6.770;2023-11-21T08:15:47;23.40;;;12.57;;
2646;SDS011;1333;50.958;6.770;2023-11-21T08:18:13;24.87;;;11.40;;
2646;SDS011;1333;50.958;6.770;2023-11-21T08:20:39;23.60;;;11.87;;
2646;SDS011;1333;50.958;6.770;2023-11-21T08:23:05;20.10;;;11.37;;
2646;SDS011;1333;50.958;6.770;2023-11-21T08:25:31;22.40;;;12.40;;
2646;SDS011;1333;50.958;6.770;2023-11-21T08:27:58;20.40;;;11.37;;
2646;SDS011;1333;50.958;6.770;2023-11-21T08:30:24;20.43;;;12.33;;
2646;SDS011;1333;50.958;6.770;2023-11-21T08:32:50;26.03;;;13.40;;
2646;SDS011;1333;50.958;6.770;2023-11-21T08:35:17;20.30;;;11.73;;
2646;SDS011;1333;50.958;6.770;2023-11-21T08:37:42;20.27;;;11.03;;
2646;SDS011;1333;50.958;6.770;2023-11-21T08:40:08;26.87;;;12.03;;
2646;SDS011;1333;50.958;6.770;2023-11-21T08:42:34;24.87;;;11.60;;
2646;SDS011;1333;50.958;6.770;2023-11-21T08:45:00;21.83;;;13.30;;
2646;SDS011;1333;50.958;6.770;2023-11-21T08:47:26;28.30;;;12.50;;
2646;SDS011;1333;50.958;6.770;2023-11-21T08:49:52;16.50;;;9.63;;
2646;SDS011;1333;50.958;6.770;2023-11-21T08:52:18;21.93;;;9.57;;
2646;SDS011;1333;50.958;6.770;2023-11-21T08:54:45;18.83;;;10.30;;
2646;SDS011;1333;50.958;6.770;2023-11-21T08:57:11;25.37;;;12.47;;
2646;SDS011;1333;50.958;6.770;2023-11-21T08:59:36;22.30;;;11.30;;
2646;SDS011;1333;50.958;6.770;2023-11-21T09:02:02;23.03;;;10.60;;
2646;SDS011;1333;50.958;6.770;2023-11-21T09:04:27;29.47;;;12.23;;
2646;SDS011;1333;50.958;6.770;2023-11-21T09:06:53;30.17;;;12.13;;
2646;SDS011;1333;50.958;6.770;2023-11-21T09:09:18;22.77;;;10.23;;
2646;SDS011;1333;50.958;6.770;2023-11-21T09:11:44;29.40;;;13.07;;
2646;SDS011;1333;50.958;6.770;2023-11-21T09:14:11;20.30;;;10.33;;
2646;SDS011;1333;50.958;6.770;2023-11-21T09:16:38;27.20;;;12.70;;
2646;SDS011;1333;50.958;6.770;2023-11-21T09:19:04;23.20;;;12.27;;
2646;SDS011;1333;50.958;6.770;2023-11-21T09:21:30;20.00;;;11.40;;
2646;SDS011;1333;50.958;6.770;2023-11-21T09:23:56;19.40;;;10.60;;
2646;SDS011;1333;50.958;6.770;2023-11-21T09:26:21;24.97;;;11.50;;
2646;SDS011;1333;50.958;6.770;2023-11-21T09:28:47;23.37;;;10.23;;
2646;SDS011;1333;50.958;6.770;2023-11-21T09:31:13;20.70;;;10.73;;
2646;SDS011;1333;50.958;6.770;2023-11-21T09:33:40;16.33;;;9.87;;
2646;SDS011;1333;50.958;6.770;2023-11-21T09:36:11;21.93;;;10.63;;
2646;SDS011;1333;50.958;6.770;2023-11-21T09:38:38;21.07;;;10.90;;
2646;SDS011;1333;50.958;6.770;2023-11-21T09:41:04;16.20;;;9.70;;
2646;SDS011;1333;50.958;6.770;2023-11-21T09:43:33;24.47;;;11.80;;
2646;SDS011;1333;50.958;6.770;2023-11-21T09:46:00;26.07;;;12.27;;
2646;SDS011;1333;50.958;6.770;2023-11-21T09:48:27;20.37;;;9.50;;
2646;SDS011;1333;50.958;6.770;2023-11-21T09:50:55;23.60;;;12.27;;
2646;SDS011;1333;50.958;6.770;2023-11-21T09:53:22;18.00;;;10.43;;
2646;SDS011;1333;50.958;6.770;2023-11-21T09:55:50;22.63;;;10.40;;
2646;SDS011;1333;50.958;6.770;2023-11-21T09:58:19;20.00;;;9.80;;
2646;SDS011;1333;50.958;6.770;2023-11-21T10:00:47;26.10;;;11.60;;
2646;SDS011;1333;50.958;6.770;2023-11-21T10:03:15;21.33;;;10.83;;
2646;SDS011;1333;50.958;6.770;2023-11-21T10:05:44;20.40;;;11.20;;
2646;SDS011;1333;50.958;6.770;2023-11-21T10:08:11;20.20;;;11.77;;
2646;SDS011;1333;50.958;6.770;2023-11-21T10:10:38;23.70;;;11.43;;
2646;SDS011;1333;50.958;6.770;2023-11-21T10:13:10;21.20;;;11.50;;
2646;SDS011;1333;50.958;6.770;2023-11-21T10:15:37;26.97;;;13.43;;
2646;SDS011;1333;50.958;6.770;2023-11-21T10:18:04;23.33;;;13.77;;
2646;SDS011;1333;50.958;6.770;2023-11-21T10:20:31;28.27;;;12.93;;
2646;SDS011;1333;50.958;6.770;2023-11-21T10:22:58;23.83;;;11.40;;
2646;SDS011;1333;50.958;6.770;2023-11-21T10:25:26;31.13;;;12.33;;
2646;SDS011;1333;50.958;6.770;2023-11-21T10:27:56;19.20;;;11.03;;
2646;SDS011;1333;50.958;6.770;2023-11-21T10:30:27;21.33;;;11.97;;
2646;SDS011;1333;50.958;6.770;2023-11-21T10:33:00;23.57;;;11.90;;
2646;SDS011;1333;50.958;6.770;2023-11-21T10:35:38;20.50;;;11.57;;
2646;SDS011;1333;50.958;6.770;2023-11-21T10:38:07;19.60;;;11.03;;
2646;SDS011;1333;50.958;6.770;2023-11-21T10:40:37;20.20;;;11.10;;
2646;SDS011;1333;50.958;6.770;2023-11-21T10:43:07;22.73;;;10.20;;
2646;SDS011;1333;50.958;6.770;2023-11-21T10:45:34;24.50;;;10.97;;
2646;SDS011;1333;50.958;6.770;2023-11-21T10:48:04;18.43;;;10.90;;
2646;SDS011;1333;50.958;6.770;2023-11-21T10:50:34;22.73;;;10.83;;
2646;SDS011;1333;50.958;6.770;2023-11-21T10:53:04;17.83;;;10.53;;
2646;SDS011;1333;50.958;6.770;2023-11-21T10:55:31;17.40;;;9.70;;
2646;SDS011;1333;50.958;6.770;2023-11-21T10:57:58;16.93;;;9.87;;
2646;SDS011;1333;50.958;6.770;2023-11-21T11:00:29;18.97;;;9.20;;
2646;SDS011;1333;50.958;6.770;2023-11-21T11:02:56;18.37;;;10.27;;
2646;SDS011;1333;50.958;6.770;2023-11-21T11:05:23;16.03;;;9.40;;
2646;SDS011;1333;50.958;6.770;2023-11-21T11:07:51;17.13;;;10.27;;
2646;SDS011;1333;50.958;6.770;2023-11-21T11:10:25;19.00;;;10.17;;
2646;SDS011;1333;50.958;6.770;2023-11-21T11:12:52;20.13;;;10.30;;
2646;SDS011;1333;50.958;6.770;2023-11-21T11:15:19;10.83;;;8.00;;
2646;SDS011;1333;50.958;6.770;2023-11-21T11:17:45;15.50;;;9.70;;
2646;SDS011;1333;50.958;6.770;2023-11-21T11:20:12;14.23;;;8.50;;
2646;SDS011;1333;50.958;6.770;2023-11-21T11:22:47;22.43;;;8.50;;
2646;SDS011;1333;50.958;6.770;2023-11-21T11:28:22;15.37;;;8.90;;
2646;SDS011;1333;50.958;6.770;2023-11-21T11:33:57;13.37;;;8.10;;
2646;SDS011;1333;50.958;6.770;2023-11-21T11:36:31;17.20;;;8.40;;
2646;SDS011;1333;50.958;6.770;2023-11-21T11:39:02;16.97;;;8.10;;
2646;SDS011;1333;50.958;6.770;2023-11-21T11:41:30;15.67;;;9.57;;
2646;SDS011;1333;50.958;6.770;2023-11-21T11:44:02;15.50;;;8.43;;
2646;SDS011;1333;50.958;6.770;2023-11-21T11:49:28;14.67;;;8.50;;
2646;SDS011;1333;50.958;6.770;2023-11-21T11:54:56;17.70;;;8.10;;
2646;SDS011;1333;50.958;6.770;2023-11-21T11:57:26;15.30;;;9.53;;
2646;SDS011;1333;50.958;6.770;2023-11-21T12:02:52;18.30;;;10.10;;
2646;SDS011;1333;50.958;6.770;2023-11-21T12:05:22;15.17;;;9.57;;
2646;SDS011;1333;50.958;6.770;2023-11-21T12:07:57;20.13;;;10.20;;
2646;SDS011;1333;50.958;6.770;2023-11-21T12:10:29;23.53;;;9.80;;
2646;SDS011;1333;50.958;6.770;2023-11-21T12:12:59;15.00;;;8.93;;
2646;SDS011;1333;50.958;6.770;2023-11-21T12:15:26;16.27;;;9.97;;
2646;SDS011;1333;50.958;6.770;2023-11-21T12:17:55;13.10;;;8.53;;
2646;SDS011;1333;50.958;6.770;2023-11-21T12:20:21;12.77;;;8.47;;
2646;SDS011;1333;50.958;6.770;2023-11-21T12:22:54;19.13;;;7.43;;
2646;SDS011;1333;50.958;6.770;2023-11-21T12:25:23;12.70;;;7.97;;
2646;SDS011;1333;50.958;6.770;2023-11-21T12:27:53;15.73;;;7.27;;
2646;SDS011;1333;50.958;6.770;2023-11-21T12:30:21;18.07;;;7.97;;
2646;SDS011;1333;50.958;6.770;2023-11-21T12:32:53;13.67;;;7.70;;
2646;SDS011;1333;50.958;6.770;2023-11-21T12:35:26;12.23;;;8.27;;
2646;SDS011;1333;50.958;6.770;2023-11-21T12:37:54;14.47;;;7.47;;
2646;SDS011;1333;50.958;6.770;2023-11-21T12:40:22;14.50;;;8.70;;
2646;SDS011;1333;50.958;6.770;2023-11-21T12:42:48;14.90;;;7.70;;
2646;SDS011;1333;50.958;6.770;2023-11-21T12:48:01;17.53;;;7.90;;
2646;SDS011;1333;50.958;6.770;2023-11-21T12:50:32;15.07;;;7.07;;
2646;SDS011;1333;50.958;6.770;2023-11-21T12:52:59;14.90;;;8.13;;
2646;SDS011;1333;50.958;6.770;2023-11-21T12:55:29;14.23;;;7.90;;
2646;SDS011;1333;50.958;6.770;2023-11-21T12:57:56;13.70;;;7.50;;
2646;SDS011;1333;50.958;6.770;2023-11-21T13:00:29;16.70;;;9.40;;
2646;SDS011;1333;50.958;6.770;2023-11-21T13:02:58;17.00;;;7.50;;
2646;SDS011;1333;50.958;6.770;2023-11-21T13:05:32;20.10;;;7.67;;
2646;SDS011;1333;50.958;6.770;2023-11-21T13:08:02;13.17;;;7.10;;
2646;SDS011;1333;50.958;6.770;2023-11-21T13:10:31;12.50;;;7.57;;
2646;SDS011;1333;50.958;6.770;2023-11-21T13:12:57;16.20;;;7.90;;
2646;SDS011;1333;50.958;6.770;2023-11-21T13:15:24;16.10;;;7.83;;
2646;SDS011;1333;50.958;6.770;2023-11-21T13:17:52;10.00;;;7.97;;
2646;SDS011;1333;50.958;6.770;2023-11-21T13:20:18;10.90;;;6.47;;
2646;SDS011;1333;50.958;6.770;2023-11-21T13:22:51;7.53;;;4.93;;
2646;SDS011;1333;50.958;6.770;2023-11-21T13:25:24;8.23;;;5.80;;
2646;SDS011;1333;50.958;6.770;2023-11-21T13:27:54;10.87;;;6.27;;
2646;SDS011;1333;50.958;6.770;2023-11-21T13:30:20;10.23;;;7.10;;
2646;SDS011;1333;50.958;6.770;2023-11-21T13:32:58;8.63;;;6.10;;
2646;SDS011;1333;50.958;6.770;2023-11-21T13:35:30;10.73;;;6.40;;
2646;SDS011;1333;50.958;6.770;2023-11-21T13:37:57;11.87;;;6.97;;
2646;SDS011;1333;50.958;6.770;2023-11-21T13:40:35;8.20;;;5.47;;
2646;SDS011;1333;50.958;6.770;2023-11-21T13:43:11;13.83;;;6.90;;
2646;SDS011;1333;50.958;6.770;2023-11-21T13:45:40;13.73;;;6.50;;
2646;SDS011;1333;50.958;6.770;2023-11-21T13:48:06;14.27;;;7.53;;
2646;SDS011;1333;50.958;6.770;2023-11-21T13:50:36;11.93;;;6.20;;
2646;SDS011;1333;50.958;6.770;2023-11-21T13:53:02;13.03;;;7.50;;
2646;SDS011;1333;50.958;6.770;2023-11-21T13:55:35;12.57;;;7.80;;
2646;SDS011;1333;50.958;6.770;2023-11-21T13:58:02;13.67;;;8.27;;
2646;SDS011;1333;50.958;6.770;2023-11-21T14:00:29;19.57;;;9.67;;
2646;SDS011;1333;50.958;6.770;2023-11-21T14:03:09;14.50;;;6.97;;
2646;SDS011;1333;50.958;6.770;2023-11-21T14:05:43;13.50;;;7.13;;
2646;SDS011;1333;50.958;6.770;2023-11-21T14:08:12;11.60;;;6.60;;
2646;SDS011;1333;50.958;6.770;2023-11-21T14:10:41;11.53;;;7.37;;
2646;SDS011;1333;50.958;6.770;2023-11-21T14:13:14;21.27;;;7.13;;
2646;SDS011;1333;50.958;6.770;2023-11-21T14:15:41;12.50;;;7.57;;
2646;SDS011;1333;50.958;6.770;2023-11-21T14:18:10;9.17;;;6.00;;
2646;SDS011;1333;50.958;6.770;2023-11-21T14:20:36;7.07;;;6.00;;
2646;SDS011;1333;50.958;6.770;2023-11-21T14:23:05;13.67;;;6.93;;
2646;SDS011;1333;50.958;6.770;2023-11-21T14:25:34;15.27;;;7.63;;
2646;SDS011;1333;50.958;6.770;2023-11-21T14:28:02;20.17;;;6.97;;
2646;SDS011;1333;50.958;6.770;2023-11-21T14:30:28;12.13;;;6.50;;
2646;SDS011;1333;50.958;6.770;2023-11-21T14:32:56;15.03;;;8.03;;
2646;SDS011;1333;50.958;6.770;2023-11-21T14:35:25;13.93;;;6.90;;
2646;SDS011;1333;50.958;6.770;2023-11-21T14:37:51;13.73;;;7.40;;
2646;SDS011;1333;50.958;6.770;2023-11-21T14:40:17;12.77;;;8.10;;
2646;SDS011;1333;50.958;6.770;2023-11-21T14:42:47;18.30;;;8.30;;
2646;SDS011;1333;50.958;6.770;2023-11-21T14:45:13;13.77;;;7.50;;
2646;SDS011;1333;50.958;6.770;2023-11-21T14:47:44;13.93;;;8.27;;
2646;SDS011;1333;50.958;6.770;2023-11-21T14:50:16;17.13;;;8.90;;
2646;SDS011;1333;50.958;6.770;2023-11-21T14:53:04;23.77;;;9.27;;
2646;SDS011;1333;50.958;6.770;2023-11-21T14:55:31;17.00;;;8.87;;
2646;SDS011;1333;50.958;6.770;2023-11-21T14:58:06;15.40;;;9.00;;
2646;SDS011;1333;50.958;6.770;2023-11-21T15:00:37;16.23;;;8.80;;
2646;SDS011;1333;50.958;6.770;2023-11-21T15:03:03;10.73;;;8.50;;
2646;SDS011;1333;50.958;6.770;2023-11-21T15:05:29;16.93;;;10.43;;
2646;SDS011;1333;50.958;6.770;2023-11-21T15:07:56;14.17;;;8.67;;
2646;SDS011;1333;50.958;6.770;2023-11-21T15:10:33;14.53;;;8.93;;
2646;SDS011;1333;50.958;6.770;2023-11-21T15:13:11;20.03;;;9.10;;
2646;SDS011;1333;50.958;6.770;2023-11-21T15:15:39;25.30;;;10.07;;